createdAt,value
2019-05-28T00:00:11.540Z,2.37
2019-05-28T00:02:37.403Z,2.23
2019-05-28T00:05:04.661Z,2.37
2019-05-28T00:07:30.520Z,2.57
2019-05-28T00:09:56.390Z,2.50
2019-05-28T00:12:22.261Z,2.30
2019-05-28T00:14:48.177Z,2.27
2019-05-28T00:17:14.020Z,2.53
2019-05-28T00:19:39.866Z,2.10
2019-05-28T00:22:05.723Z,2.40
2019-05-28T00:24:31.589Z,2.63
2019-05-28T00:26:57.442Z,2.50
2019-05-28T00:29:23.305Z,2.53
2019-05-28T00:31:49.319Z,2.60
2019-05-28T00:34:15.174Z,2.10
2019-05-28T00:36:41.160Z,2.27
2019-05-28T00:39:07.316Z,2.63
2019-05-28T00:41:33.173Z,2.47
2019-05-28T00:43:59.035Z,2.10
2019-05-28T00:46:24.928Z,2.80
2019-05-28T00:48:50.763Z,3.03
2019-05-28T00:51:16.845Z,2.43
2019-05-28T00:53:42.698Z,2.40
2019-05-28T00:56:08.776Z,2.50
2019-05-28T00:58:35.739Z,3.17
2019-05-28T01:01:01.587Z,2.07
2019-05-28T01:03:27.494Z,2.80
2019-05-28T01:05:53.541Z,3.43
2019-05-28T01:08:19.394Z,2.60
2019-05-28T01:10:46.296Z,2.93
2019-05-28T01:13:12.181Z,2.50
2019-05-28T01:15:38.004Z,2.83
2019-05-28T01:18:04.076Z,2.50
2019-05-28T01:20:29.935Z,2.60
2019-05-28T01:22:55.799Z,2.93
2019-05-28T01:25:21.753Z,2.77
2019-05-28T01:27:47.648Z,2.40
2019-05-28T01:30:14.015Z,2.80
2019-05-28T01:32:39.870Z,3.30
2019-05-28T01:35:05.927Z,3.17
2019-05-28T01:37:31.799Z,3.33
2019-05-28T01:39:57.659Z,2.87
2019-05-28T01:42:23.513Z,3.30
2019-05-28T01:44:49.383Z,3.73
2019-05-28T01:47:15.250Z,3.63
2019-05-28T01:49:41.116Z,3.33
2019-05-28T01:52:06.978Z,4.00
2019-05-28T01:54:32.847Z,3.83
2019-05-28T01:56:58.718Z,4.07
2019-05-28T01:59:24.619Z,4.30
2019-05-28T02:01:50.481Z,4.87
2019-05-28T02:04:16.326Z,4.13
2019-05-28T02:06:42.202Z,4.33
2019-05-28T02:09:08.058Z,4.37
2019-05-28T02:11:33.915Z,3.80
2019-05-28T02:13:59.780Z,4.20
2019-05-28T02:16:25.643Z,4.10
2019-05-28T02:18:51.509Z,4.07
2019-05-28T02:21:17.665Z,4.10
2019-05-28T02:23:43.522Z,4.33
2019-05-28T02:26:09.395Z,4.60
2019-05-28T02:28:35.252Z,4.63
2019-05-28T02:31:01.109Z,4.33
2019-05-28T02:33:26.973Z,4.40
2019-05-28T02:35:52.821Z,4.93
2019-05-28T02:38:18.682Z,3.87
2019-05-28T02:40:47.638Z,5.00
2019-05-28T02:43:13.633Z,4.37
2019-05-28T02:45:39.504Z,4.10
2019-05-28T02:48:05.653Z,4.63
2019-05-28T02:50:44.366Z,4.70
2019-05-28T02:53:10.225Z,5.03
2019-05-28T02:55:36.099Z,4.57
2019-05-28T02:58:02.925Z,4.27
2019-05-28T03:00:29.053Z,4.27
2019-05-28T03:02:56.412Z,4.63
2019-05-28T03:05:22.768Z,4.47
2019-05-28T03:07:49.325Z,4.50
2019-05-28T03:10:21.902Z,5.03
2019-05-28T03:12:47.833Z,4.93
2019-05-28T03:15:14.068Z,4.47
2019-05-28T03:17:41.355Z,4.67
2019-05-28T03:20:07.529Z,5.33
2019-05-28T03:22:36.089Z,4.60
2019-05-28T03:25:04.296Z,5.33
2019-05-28T03:27:30.178Z,5.00
2019-05-28T03:29:56.036Z,4.90
2019-05-28T03:32:21.936Z,4.97
2019-05-28T03:34:47.778Z,4.80
2019-05-28T03:37:14.144Z,5.20
2019-05-28T03:39:41.617Z,5.00
2019-05-28T03:42:07.694Z,4.87
2019-05-28T03:44:33.543Z,5.17
2019-05-28T03:46:59.406Z,4.87
2019-05-28T03:49:25.348Z,4.70
2019-05-28T03:51:51.286Z,5.17
2019-05-28T03:54:17.246Z,4.87
2019-05-28T03:56:43.099Z,5.67
2019-05-28T03:59:08.969Z,5.30
2019-05-28T04:01:34.831Z,5.40
2019-05-28T04:04:00.687Z,6.10
2019-05-28T04:06:26.537Z,5.97
2019-05-28T04:08:52.403Z,6.60
2019-05-28T04:11:18.405Z,7.33
2019-05-28T04:13:44.271Z,7.30
2019-05-28T04:16:10.213Z,7.13
2019-05-28T04:18:36.083Z,8.20
2019-05-28T04:21:02.046Z,8.40
2019-05-28T04:23:27.911Z,9.73
2019-05-28T04:25:53.778Z,9.20
2019-05-28T04:28:19.645Z,8.00
2019-05-28T04:30:45.535Z,6.10
2019-05-28T04:33:11.372Z,5.93
2019-05-28T04:35:37.229Z,4.37
2019-05-28T04:38:03.085Z,3.40
2019-05-28T04:40:28.994Z,2.93
2019-05-28T04:42:54.865Z,2.43
2019-05-28T04:45:21.006Z,2.80
2019-05-28T04:47:46.871Z,1.77
2019-05-28T04:50:13.325Z,2.30
2019-05-28T04:52:39.178Z,2.53
2019-05-28T04:55:05.347Z,2.20
2019-05-28T04:57:31.263Z,1.80
2019-05-28T04:59:57.082Z,2.00
2019-05-28T05:02:22.969Z,1.93
2019-05-28T05:04:48.821Z,1.60
2019-05-28T05:07:14.699Z,1.73
2019-05-28T05:09:40.552Z,1.30
2019-05-28T05:12:06.428Z,1.40
2019-05-28T05:14:32.294Z,1.33
2019-05-28T05:16:58.155Z,1.40
2019-05-28T05:19:24.014Z,1.30
2019-05-28T05:21:49.879Z,1.10
2019-05-28T05:24:15.763Z,1.30
2019-05-28T05:26:41.626Z,1.30
2019-05-28T05:29:08.346Z,1.70
2019-05-28T05:31:34.201Z,1.80
2019-05-28T05:34:00.060Z,1.80
2019-05-28T05:36:25.929Z,2.00
2019-05-28T05:38:51.780Z,1.53
2019-05-28T05:41:17.640Z,1.70
2019-05-28T05:43:43.501Z,1.27
2019-05-28T05:46:09.363Z,1.53
2019-05-28T05:48:35.228Z,1.63
2019-05-28T05:51:01.083Z,1.73
2019-05-28T05:53:26.928Z,1.27
2019-05-28T05:55:52.792Z,1.50
2019-05-28T05:58:18.659Z,1.80
2019-05-28T06:00:44.577Z,1.90
2019-05-28T06:03:11.308Z,1.67
2019-05-28T06:05:37.231Z,2.00
2019-05-28T06:08:03.213Z,1.90
2019-05-28T06:10:29.050Z,1.80
2019-05-28T06:12:54.927Z,1.37
2019-05-28T06:15:20.790Z,1.40
2019-05-28T06:17:47.011Z,1.47
2019-05-28T06:20:13.468Z,1.40
2019-05-28T06:22:39.315Z,1.60
2019-05-28T06:25:05.717Z,1.47
2019-05-28T06:27:31.557Z,1.53
2019-05-28T06:29:57.401Z,2.20
2019-05-28T06:32:23.293Z,1.73
2019-05-28T06:34:49.148Z,1.90
2019-05-28T06:37:14.999Z,1.67
2019-05-28T06:39:40.856Z,1.77
2019-05-28T06:42:06.709Z,1.80
2019-05-28T06:44:32.558Z,1.87
2019-05-28T06:46:58.425Z,1.87
2019-05-28T06:49:27.294Z,1.90
2019-05-28T06:51:53.151Z,2.20
2019-05-28T06:54:19.023Z,2.13
2019-05-28T06:56:44.922Z,2.23
2019-05-28T06:59:10.814Z,2.43
2019-05-28T07:01:36.741Z,2.70
2019-05-28T07:04:13.241Z,2.47
2019-05-28T07:06:30.960Z,3.00
2019-05-28T07:08:56.819Z,2.90
2019-05-28T07:11:22.677Z,2.80
2019-05-28T07:13:48.525Z,3.60
2019-05-28T07:16:14.389Z,3.40
2019-05-28T07:18:40.259Z,3.70
2019-05-28T07:21:06.121Z,3.87
2019-05-28T07:23:31.977Z,3.67
2019-05-28T07:25:57.833Z,3.60
2019-05-28T07:28:23.690Z,3.43
2019-05-28T07:30:49.565Z,3.57
2019-05-28T07:33:15.436Z,3.70
2019-05-28T07:35:45.942Z,3.70
2019-05-28T07:38:09.026Z,4.40
2019-05-28T07:40:34.897Z,4.00
2019-05-28T07:43:00.746Z,5.07
2019-05-28T07:45:26.606Z,5.10
2019-05-28T07:47:52.462Z,4.90
2019-05-28T07:50:18.319Z,4.77
2019-05-28T07:52:44.180Z,4.60
2019-05-28T07:55:10.540Z,4.80
2019-05-28T07:57:36.402Z,4.53
2019-05-28T08:00:05.773Z,4.80
2019-05-28T08:02:31.936Z,4.93
2019-05-28T08:04:57.798Z,6.20
2019-05-28T08:07:23.787Z,5.57
2019-05-28T08:09:49.645Z,4.70
2019-05-28T08:12:15.504Z,4.20
2019-05-28T08:14:41.370Z,3.33
2019-05-28T08:17:07.232Z,3.40
2019-05-28T08:19:33.096Z,2.90
2019-05-28T08:21:58.955Z,3.20
2019-05-28T08:24:24.816Z,3.47
2019-05-28T08:26:50.677Z,4.00
2019-05-28T08:29:19.512Z,3.80
2019-05-28T08:31:45.351Z,4.80
2019-05-28T08:34:13.178Z,4.53
2019-05-28T08:36:39.638Z,4.10
2019-05-28T08:39:06.167Z,4.13
2019-05-28T08:41:32.038Z,4.00
2019-05-28T08:43:57.881Z,4.37
2019-05-28T08:46:23.748Z,3.73
2019-05-28T08:48:49.711Z,3.40
2019-05-28T08:51:15.581Z,2.80
2019-05-28T08:53:41.512Z,3.20
2019-05-28T08:56:07.409Z,3.27
2019-05-28T08:58:33.276Z,3.47
2019-05-28T09:00:59.139Z,3.33
2019-05-28T09:03:25.019Z,3.30
2019-05-28T09:05:50.886Z,3.50
2019-05-28T09:08:16.794Z,3.33
2019-05-28T09:10:42.631Z,3.30
2019-05-28T09:13:08.499Z,3.33
2019-05-28T09:15:34.468Z,3.83
2019-05-28T09:18:01.815Z,4.27
2019-05-28T09:20:27.831Z,4.10
2019-05-28T09:22:54.183Z,3.80
2019-05-28T09:25:20.160Z,3.33
2019-05-28T09:27:46.030Z,2.90
2019-05-28T09:30:13.393Z,2.50
2019-05-28T09:32:39.314Z,2.30
2019-05-28T09:35:06.221Z,2.30
2019-05-28T09:37:32.067Z,2.57
2019-05-28T09:39:57.929Z,2.57
2019-05-28T09:42:23.786Z,2.17
2019-05-28T09:44:49.634Z,2.10
2019-05-28T09:47:15.496Z,2.00
2019-05-28T09:49:41.341Z,2.43
2019-05-28T09:52:07.218Z,2.93
2019-05-28T09:54:33.074Z,2.70
2019-05-28T09:56:58.942Z,2.57
2019-05-28T09:59:40.278Z,2.90
2019-05-28T10:01:53.059Z,3.13
2019-05-28T10:04:18.919Z,2.40
2019-05-28T10:06:44.799Z,2.10
2019-05-28T10:09:10.821Z,2.17
2019-05-28T10:11:36.667Z,1.63
2019-05-28T10:14:02.949Z,1.63
2019-05-28T10:16:28.790Z,1.30
2019-05-28T10:18:55.102Z,1.33
2019-05-28T10:21:20.990Z,1.43
2019-05-28T10:23:46.858Z,1.10
2019-05-28T10:26:12.756Z,0.90
2019-05-28T10:28:38.594Z,1.20
2019-05-28T10:31:04.448Z,1.10
2019-05-28T10:33:30.308Z,1.30
2019-05-28T10:35:56.191Z,1.10
2019-05-28T10:38:22.038Z,1.37
2019-05-28T10:40:47.896Z,1.40
2019-05-28T10:43:13.926Z,1.40
2019-05-28T10:45:40.203Z,1.10
2019-05-28T10:48:06.276Z,1.10
2019-05-28T10:50:32.171Z,1.37
2019-05-28T10:52:58.032Z,1.50
2019-05-28T10:55:24.039Z,1.40
2019-05-28T10:57:49.936Z,1.67
2019-05-28T11:00:16.887Z,1.80
2019-05-28T11:02:42.833Z,1.37
2019-05-28T11:05:09.737Z,1.70
2019-05-28T11:07:35.564Z,1.63
2019-05-28T11:10:20.051Z,2.17
2019-05-28T11:12:31.076Z,1.90
2019-05-28T11:14:57.019Z,1.83
2019-05-28T11:17:22.872Z,1.93
2019-05-28T11:19:48.762Z,1.10
2019-05-28T11:22:15.261Z,1.30
2019-05-28T11:24:41.117Z,0.97
2019-05-28T11:27:07.003Z,1.50
2019-05-28T11:29:32.887Z,1.27
2019-05-28T11:31:58.775Z,1.63
2019-05-28T11:34:24.710Z,1.50
2019-05-28T11:36:50.661Z,1.53
2019-05-28T11:39:16.461Z,1.60
2019-05-28T11:41:43.296Z,1.80
2019-05-28T11:44:09.401Z,1.67
2019-05-28T11:46:35.357Z,1.40
2019-05-28T11:49:01.222Z,1.33
2019-05-28T11:51:27.092Z,1.20
2019-05-28T11:53:55.307Z,1.30
2019-05-28T11:56:21.205Z,1.07
2019-05-28T11:58:47.066Z,1.23
2019-05-28T12:01:12.925Z,1.40
2019-05-28T12:03:38.777Z,1.90
2019-05-28T12:06:04.657Z,1.67
2019-05-28T12:08:30.496Z,1.53
2019-05-28T12:10:56.366Z,1.73
2019-05-28T12:13:22.251Z,2.30
2019-05-28T12:15:48.095Z,1.80
2019-05-28T12:18:13.964Z,1.23
2019-05-28T12:20:39.830Z,1.20
2019-05-28T12:23:11.004Z,0.90
2019-05-28T12:25:33.472Z,1.30
2019-05-28T12:27:59.344Z,1.20
2019-05-28T12:30:25.694Z,1.30
2019-05-28T12:32:51.569Z,1.17
2019-05-28T12:35:29.304Z,1.23
2019-05-28T12:37:50.584Z,1.00
2019-05-28T12:40:17.481Z,1.00
2019-05-28T12:42:43.341Z,1.20
2019-05-28T12:45:11.623Z,1.20
2019-05-28T12:47:37.470Z,1.43
2019-05-28T12:50:17.825Z,1.23
2019-05-28T12:52:32.903Z,1.00
2019-05-28T12:54:58.773Z,0.80
2019-05-28T12:57:24.641Z,1.13
2019-05-28T12:59:50.519Z,1.50
2019-05-28T13:02:16.386Z,1.30
2019-05-28T13:04:42.245Z,0.90
2019-05-28T13:07:08.222Z,1.03
2019-05-28T13:09:34.079Z,0.67
2019-05-28T13:11:59.960Z,0.80
2019-05-28T13:14:26.139Z,0.63
2019-05-28T13:16:51.989Z,0.50
2019-05-28T13:19:17.838Z,0.80
2019-05-28T13:21:43.695Z,1.20
2019-05-28T13:24:09.587Z,0.70
2019-05-28T13:26:35.424Z,0.70
2019-05-28T13:29:01.293Z,0.67
2019-05-28T13:31:27.137Z,0.80
2019-05-28T13:33:53.187Z,0.60
2019-05-28T13:36:19.064Z,0.50
2019-05-28T13:38:45.434Z,0.70
2019-05-28T13:41:11.288Z,0.90
2019-05-28T13:43:37.144Z,0.87
2019-05-28T13:46:03.204Z,0.97
2019-05-28T13:48:29.063Z,0.87
2019-05-28T13:50:54.982Z,0.90
2019-05-28T13:53:20.807Z,0.90
2019-05-28T13:55:46.666Z,1.10
2019-05-28T13:58:12.532Z,1.13
2019-05-28T14:00:38.386Z,1.47
2019-05-28T14:03:07.763Z,1.33
2019-05-28T14:05:33.626Z,1.50
2019-05-28T14:07:59.479Z,1.47
2019-05-28T14:10:25.592Z,1.23
2019-05-28T14:12:51.476Z,1.60
2019-05-28T14:15:18.292Z,1.47
2019-05-28T14:17:44.174Z,1.30
2019-05-28T14:20:10.579Z,1.50
2019-05-28T14:22:36.445Z,1.63
2019-05-28T14:25:06.490Z,1.30
2019-05-28T14:27:32.933Z,1.10
2019-05-28T14:29:59.341Z,1.20
2019-05-28T14:32:25.207Z,1.87
2019-05-28T14:34:52.510Z,1.70
2019-05-28T14:37:18.630Z,2.00
2019-05-28T14:39:44.590Z,1.60
2019-05-28T14:42:10.447Z,1.63
2019-05-28T14:44:36.308Z,1.87
2019-05-28T14:47:02.830Z,1.53
2019-05-28T14:49:28.685Z,1.77
2019-05-28T14:51:54.750Z,1.90
2019-05-28T14:54:20.618Z,2.13
2019-05-28T14:56:46.493Z,2.40
2019-05-28T14:59:12.357Z,2.40
2019-05-28T15:01:38.352Z,2.50
2019-05-28T15:04:04.195Z,2.27
2019-05-28T15:06:30.075Z,2.00
2019-05-28T15:08:55.944Z,2.57
2019-05-28T15:11:21.807Z,2.50
2019-05-28T15:13:48.180Z,2.60
2019-05-28T15:16:14.062Z,2.40
2019-05-28T15:18:39.916Z,2.27
2019-05-28T15:21:05.782Z,2.70
2019-05-28T15:23:31.634Z,2.10
2019-05-28T15:25:57.542Z,2.43
2019-05-28T15:28:23.393Z,2.20
2019-05-28T15:30:49.461Z,2.50
2019-05-28T15:33:15.322Z,2.20
2019-05-28T15:35:41.176Z,2.33
2019-05-28T15:38:07.097Z,2.13
2019-05-28T15:40:32.945Z,2.60
2019-05-28T15:43:06.237Z,2.30
2019-05-28T15:45:26.805Z,2.67
2019-05-28T15:47:52.655Z,2.70
2019-05-28T15:50:18.668Z,2.60
2019-05-28T15:52:44.667Z,2.37
2019-05-28T15:55:10.852Z,2.63
2019-05-28T15:57:36.733Z,2.10
2019-05-28T16:00:08.235Z,2.13
2019-05-28T16:02:34.209Z,2.80
2019-05-28T16:05:00.105Z,2.03
2019-05-28T16:07:25.950Z,2.20
2019-05-28T16:09:55.973Z,2.57
2019-05-28T16:12:19.586Z,2.50
2019-05-28T16:14:45.511Z,2.33
2019-05-28T16:17:11.377Z,2.30
2019-05-28T16:19:37.240Z,2.23
2019-05-28T16:22:03.163Z,2.33
2019-05-28T16:24:28.992Z,2.10
2019-05-28T16:26:54.844Z,2.40
2019-05-28T16:29:20.702Z,2.27
2019-05-28T16:31:46.573Z,2.40
2019-05-28T16:34:12.426Z,2.40
2019-05-28T16:36:38.295Z,1.90
2019-05-28T16:39:06.950Z,2.23
2019-05-28T16:41:32.805Z,2.00
2019-05-28T16:43:58.663Z,2.27
2019-05-28T16:46:25.113Z,2.67
2019-05-28T16:48:50.956Z,2.40
2019-05-28T16:51:16.854Z,2.00
2019-05-28T16:53:42.799Z,2.60
2019-05-28T16:56:08.734Z,1.60
2019-05-28T16:58:34.595Z,1.80
2019-05-28T17:01:20.833Z,1.77
2019-05-28T17:03:28.333Z,1.70
2019-05-28T17:05:54.284Z,1.30
2019-05-28T17:08:20.256Z,1.53
2019-05-28T17:10:46.116Z,1.40
2019-05-28T17:13:11.978Z,1.80
2019-05-28T17:15:38.755Z,1.43
2019-05-28T17:18:04.627Z,1.30
2019-05-28T17:20:30.501Z,1.20
2019-05-28T17:22:56.385Z,1.80
2019-05-28T17:25:24.029Z,1.63
2019-05-28T17:27:50.329Z,1.30
2019-05-28T17:30:22.723Z,1.27
2019-05-28T17:32:44.427Z,1.03
2019-05-28T17:35:11.062Z,1.10
2019-05-28T17:37:36.933Z,1.40
2019-05-28T17:40:04.228Z,1.30
2019-05-28T17:42:30.116Z,1.10
2019-05-28T17:44:55.989Z,1.07
2019-05-28T17:47:21.903Z,1.23
2019-05-28T17:49:47.768Z,1.13
2019-05-28T17:52:13.630Z,1.10
2019-05-28T17:54:39.513Z,1.00
2019-05-28T17:57:05.375Z,1.23
2019-05-28T17:59:31.222Z,0.83
2019-05-28T18:01:57.086Z,1.00
2019-05-28T18:04:23.066Z,1.30
2019-05-28T18:06:48.921Z,0.90
2019-05-28T18:09:14.790Z,0.90
2019-05-28T18:11:40.663Z,1.10
2019-05-28T18:14:06.525Z,0.70
2019-05-28T18:16:32.400Z,1.13
2019-05-28T18:19:00.645Z,0.97
2019-05-28T18:21:26.020Z,0.90
2019-05-28T18:23:51.868Z,1.07
2019-05-28T18:26:17.729Z,0.90
2019-05-28T18:28:43.589Z,0.80
2019-05-28T18:31:09.452Z,1.23
2019-05-28T18:33:35.302Z,1.13
2019-05-28T18:36:01.158Z,0.70
2019-05-28T18:38:27.487Z,1.00
2019-05-28T18:40:53.370Z,0.93
2019-05-28T18:43:19.229Z,1.00
2019-05-28T18:50:37.333Z,1.00
2019-05-28T18:53:03.188Z,1.03
2019-05-28T18:55:29.052Z,0.90
2019-05-28T18:57:54.977Z,1.20
2019-05-28T19:00:20.968Z,1.00
2019-05-28T19:02:46.848Z,1.23
2019-05-28T19:05:12.910Z,1.37
2019-05-28T19:07:38.769Z,1.77
2019-05-28T19:10:05.494Z,1.00
2019-05-28T19:12:31.365Z,1.47
2019-05-28T19:14:57.255Z,1.20
2019-05-28T19:17:23.127Z,0.90
2019-05-28T19:19:49.020Z,1.00
2019-05-28T19:22:14.878Z,1.10
2019-05-28T19:24:40.730Z,1.40
2019-05-28T19:27:06.595Z,0.90
2019-05-28T19:29:32.655Z,1.00
2019-05-28T19:31:58.518Z,1.10
2019-05-28T19:34:25.196Z,1.00
2019-05-28T19:36:51.883Z,0.77
2019-05-28T19:39:17.866Z,0.90
2019-05-28T19:41:53.557Z,1.10
2019-05-28T19:44:11.544Z,0.93
2019-05-28T19:46:37.546Z,0.90
2019-05-28T19:49:03.413Z,0.97
2019-05-28T19:51:29.286Z,0.87
2019-05-28T19:53:55.203Z,0.80
2019-05-28T19:56:21.062Z,0.83
2019-05-28T19:58:46.922Z,1.00
2019-05-28T20:01:12.793Z,0.73
2019-05-28T20:03:38.676Z,1.00
2019-05-28T20:06:04.531Z,0.80
2019-05-28T20:08:30.422Z,0.90
2019-05-28T20:10:56.302Z,0.90
2019-05-28T20:13:22.175Z,1.00
2019-05-28T20:15:48.026Z,0.80
2019-05-28T20:18:26.277Z,0.77
2019-05-28T20:20:41.695Z,0.70
2019-05-28T20:23:07.574Z,0.90
2019-05-28T20:25:33.449Z,0.80
2019-05-28T20:27:59.312Z,0.60
2019-05-28T20:30:25.327Z,0.70
2019-05-28T20:32:51.218Z,0.90
2019-05-28T20:35:17.082Z,1.10
2019-05-28T20:37:42.937Z,0.77
2019-05-28T20:40:10.229Z,1.97
2019-05-28T20:42:36.998Z,1.30
2019-05-28T20:45:11.883Z,1.00
2019-05-28T20:47:37.510Z,0.82
2019-05-28T20:50:06.054Z,0.67
2019-05-28T20:52:33.156Z,0.70
2019-05-28T20:54:59.215Z,0.70
2019-05-28T20:57:25.197Z,3.37
2019-05-28T20:59:51.493Z,1.23
2019-05-28T21:02:19.220Z,1.00
2019-05-28T21:04:45.200Z,1.00
2019-05-28T21:07:11.061Z,0.97
2019-05-28T21:09:36.957Z,0.90
2019-05-28T21:12:03.516Z,0.80
2019-05-28T21:14:29.379Z,1.00
2019-05-28T21:16:55.237Z,0.90
2019-05-28T21:19:21.103Z,0.70
2019-05-28T21:21:47.852Z,0.70
2019-05-28T21:24:13.735Z,0.90
2019-05-28T21:26:39.585Z,1.00
2019-05-28T21:29:05.551Z,0.70
2019-05-28T21:31:31.517Z,0.90
2019-05-28T21:33:57.374Z,0.80
2019-05-28T21:36:23.245Z,0.60
2019-05-28T21:38:49.208Z,1.00
2019-05-28T21:41:15.067Z,0.70
2019-05-28T21:43:40.936Z,0.97
2019-05-28T21:46:06.792Z,0.80
2019-05-28T21:48:32.644Z,0.83
2019-05-28T21:50:58.783Z,0.90
2019-05-28T21:53:24.691Z,0.80
2019-05-28T21:55:50.562Z,1.03
2019-05-28T21:58:16.409Z,1.00
2019-05-28T22:00:58.158Z,0.77
2019-05-28T22:03:24.024Z,0.90
2019-05-28T22:05:49.860Z,0.87
2019-05-28T22:08:15.732Z,0.90
2019-05-28T22:10:41.592Z,0.93
2019-05-28T22:13:20.447Z,0.90
2019-05-28T22:15:35.227Z,1.00
2019-05-28T22:18:02.161Z,0.90
2019-05-28T22:20:28.138Z,1.10
2019-05-28T22:22:54.138Z,1.10
2019-05-28T22:25:19.987Z,1.17
2019-05-28T22:27:45.852Z,0.80
2019-05-28T22:30:12.620Z,0.97
2019-05-28T22:32:38.472Z,1.20
2019-05-28T22:35:05.324Z,1.37
2019-05-28T22:37:31.188Z,1.10
2019-05-28T22:39:57.319Z,1.13
2019-05-28T22:42:23.210Z,1.23
2019-05-28T22:44:49.066Z,1.40
2019-05-28T22:47:14.921Z,1.10
2019-05-28T22:49:40.772Z,1.07
2019-05-28T22:52:06.661Z,1.60
2019-05-28T22:54:32.524Z,1.40
2019-05-28T22:56:58.374Z,1.50
2019-05-28T22:59:24.247Z,1.73
2019-05-28T23:01:50.087Z,1.30
2019-05-28T23:04:15.938Z,1.53
2019-05-28T23:06:41.795Z,1.23
2019-05-28T23:09:07.845Z,1.03
2019-05-28T23:11:33.718Z,1.30
2019-05-28T23:13:59.880Z,1.40
2019-05-28T23:16:25.739Z,1.40
2019-05-28T23:18:51.597Z,2.00
2019-05-28T23:21:17.464Z,1.57
2019-05-28T23:23:43.346Z,1.77
2019-05-28T23:26:09.412Z,1.87
2019-05-28T23:28:35.365Z,1.67
2019-05-28T23:31:01.812Z,1.37
2019-05-28T23:33:27.775Z,1.43
2019-05-28T23:35:53.631Z,2.30
2019-05-28T23:38:19.507Z,2.03
2019-05-28T23:40:45.353Z,1.90
2019-05-28T23:43:11.601Z,1.90
2019-05-28T23:45:37.585Z,1.67
2019-05-28T23:48:07.396Z,2.07
2019-05-28T23:50:31.594Z,2.13
2019-05-28T23:52:57.512Z,2.10
2019-05-28T23:55:23.314Z,1.87
2019-05-28T23:57:49.174Z,1.93
